Time;durP1;ratioP1;P1;durP2;ratioP2;P2;SDS_P1;SDS_P2;PMS_P1;PMS_P2;Temp;Humidity;BMP_temperature;BMP_pressure;BME280_temperature;BME280_humidity;BME280_pressure;Samples;Min_cycle;Max_cycle;Signal;HPM_P1;HPM_P2
2023/06/17 00:01:49;;;;;;;10.70;5.70;;;;;;;16.79;100.00;100159.06;109690;1255;60314;-84
2023/06/17 00:04:16;;;;;;;8.10;4.50;;;;;;;16.76;100.00;100157.85;109633;1254;73904;-84
2023/06/17 00:06:44;;;;;;;11.30;5.40;;;;;;;16.73;100.00;100153.23;109669;1251;63034;-83
2023/06/17 00:09:13;;;;;;;6.80;4.30;;;;;;;16.71;100.00;100152.74;109608;1255;72688;-84
2023/06/17 00:11:40;;;;;;;6.40;4.30;;;;;;;16.68;100.00;100154.59;109643;1251;60510;-84
2023/06/17 00:14:08;;;;;;;5.90;4.60;;;;;;;16.66;100.00;100149.83;109738;1251;58740;-83
2023/06/17 00:16:43;;;;;;;7.50;4.50;;;;;;;16.65;100.00;100148.36;109742;1251;73915;-83
2023/06/17 00:19:16;;;;;;;6.10;4.20;;;;;;;16.63;100.00;100143.95;109702;1251;63949;-84
2023/06/17 00:21:43;;;;;;;13.70;5.10;;;;;;;16.59;100.00;100142.71;109629;1251;72664;-85
2023/06/17 00:24:13;;;;;;;6.00;4.00;;;;;;;16.56;100.00;100142.14;109504;1253;61895;-84
2023/06/17 00:26:42;;;;;;;6.50;4.50;;;;;;;16.52;100.00;100144.45;109688;1251;58924;-84
2023/06/17 00:29:09;;;;;;;6.10;4.30;;;;;;;16.48;100.00;100146.23;109733;1251;73857;-85
2023/06/17 00:31:37;;;;;;;13.90;4.70;;;;;;;16.43;100.00;100144.08;109734;1251;62722;-80
2023/06/17 00:34:09;;;;;;;8.50;5.10;;;;;;;16.39;100.00;100144.26;109779;1251;71207;-79
2023/06/17 00:39:19;;;;;;;10.20;4.70;;;;;;;16.34;100.00;100140.74;105920;1289;599502;-82
2023/06/17 00:41:47;;;;;;;6.50;5.50;;;;;;;16.29;100.00;100141.59;107933;1254;61654;-85
2023/06/17 00:44:15;;;;;;;6.70;4.70;;;;;;;16.26;100.00;100147.55;106073;1252;60014;-84
2023/06/17 00:46:46;;;;;;;7.20;4.90;;;;;;;16.22;100.00;100142.63;105808;1254;72405;-84
2023/06/17 00:49:14;;;;;;;6.00;4.70;;;;;;;16.17;100.00;100141.59;105947;1257;63835;-85
2023/06/17 00:51:42;;;;;;;6.90;4.70;;;;;;;16.14;100.00;100147.52;105840;1259;73725;-85
2023/06/17 00:54:24;;;;;;;10.70;4.80;;;;;;;16.10;100.00;100152.09;105693;1254;61128;-85
2023/06/17 00:56:53;;;;;;;8.30;5.10;;;;;;;16.07;100.00;100151.34;106069;1254;59300;-85
2023/06/17 00:59:20;;;;;;;6.90;4.70;;;;;;;16.05;100.00;100157.41;106097;1256;72363;-88
2023/06/17 01:01:48;;;;;;;5.90;4.30;;;;;;;16.02;100.00;100156.71;106066;1254;63533;-85
2023/06/17 01:04:16;;;;;;;9.00;5.00;;;;;;;16.00;100.00;100153.39;105978;1251;71883;-84
2023/06/17 01:06:55;;;;;;;9.10;5.20;;;;;;;15.99;100.00;100154.58;106034;1251;61664;-84
2023/06/17 01:09:24;;;;;;;6.80;5.00;;;;;;;15.95;100.00;100153.29;106013;1254;59717;-84
2023/06/17 01:11:53;;;;;;;6.10;4.80;;;;;;;15.92;100.00;100148.10;105969;1250;72996;-84
2023/06/17 01:14:21;;;;;;;8.90;5.00;;;;;;;15.89;100.00;100145.90;109885;1250;62774;-84
2023/06/17 01:16:53;;;;;;;21.40;6.40;;;;;;;15.87;100.00;100144.67;109888;1250;71380;-84
2023/06/17 01:19:24;;;;;;;8.00;4.60;;;;;;;15.85;100.00;100143.09;109852;1250;61766;-85
2023/06/17 01:21:55;;;;;;;7.90;5.00;;;;;;;15.83;100.00;100147.04;109722;1251;58743;-84
2023/06/17 01:24:28;;;;;;;10.50;5.00;;;;;;;15.79;100.00;100146.28;109808;1251;73168;-83
2023/06/17 01:26:57;;;;;;;8.40;5.00;;;;;;;15.76;100.00;100145.19;109778;1250;63560;-84
2023/06/17 01:29:29;;;;;;;6.80;4.50;;;;;;;15.72;100.00;100145.27;109684;1251;72708;-84
2023/06/17 01:31:57;;;;;;;10.40;4.70;;;;;;;15.70;100.00;100141.77;110021;1250;60724;-84
2023/06/17 01:34:39;;;;;;;7.40;4.90;;;;;;;15.68;100.00;100144.40;109798;1254;58795;-85
2023/06/17 01:37:11;;;;;;;8.00;5.00;;;;;;;15.67;100.00;100146.31;109738;1249;71688;-84
2023/06/17 01:39:43;;;;;;;10.30;5.60;;;;;;;15.66;100.00;100146.70;109701;1251;63713;-84
2023/06/17 01:42:37;;;;;;;13.10;5.40;;;;;;;15.67;100.00;100142.25;109692;1251;71333;-84
2023/06/17 01:45:07;;;;;;;11.00;5.00;;;;;;;15.66;100.00;100144.98;109695;1251;61721;-84
2023/06/17 01:47:35;;;;;;;11.80;5.10;;;;;;;15.66;100.00;100143.92;109761;1250;60875;-84
2023/06/17 01:50:03;;;;;;;11.30;5.30;;;;;;;15.65;100.00;100146.80;109716;1250;71209;-85
2023/06/17 01:52:31;;;;;;;7.20;5.20;;;;;;;15.65;100.00;100148.57;109774;1248;63612;-83
2023/06/17 01:54:59;;;;;;;6.40;4.90;;;;;;;15.66;100.00;100150.08;109895;1250;72436;-81
2023/06/17 01:57:27;;;;;;;9.20;5.50;;;;;;;15.65;100.00;100148.05;109732;1250;61616;-81
2023/06/17 01:59:55;;;;;;;8.70;4.50;;;;;;;15.65;100.00;100149.13;109790;1250;58741;-84
2023/06/17 02:02:23;;;;;;;8.00;5.00;;;;;;;15.63;100.00;100149.81;109703;1250;72118;-83
2023/06/17 02:04:52;;;;;;;8.30;5.00;;;;;;;15.61;100.00;100147.23;109740;1249;63811;-85
2023/06/17 02:07:25;;;;;;;6.80;5.70;;;;;;;15.58;100.00;100146.73;109814;1251;72626;-84
2023/06/17 02:09:52;;;;;;;10.20;4.70;;;;;;;15.55;100.00;100147.65;109857;1250;61727;-84
2023/06/17 02:12:20;;;;;;;10.10;6.10;;;;;;;15.54;100.00;100147.94;109874;1249;58799;-85
2023/06/17 02:14:48;;;;;;;5.50;4.90;;;;;;;15.54;100.00;100146.57;109831;1251;72029;-84
2023/06/17 02:17:15;;;;;;;9.00;5.30;;;;;;;15.54;100.00;100143.55;109764;1250;63780;-85
2023/06/17 02:19:43;;;;;;;12.90;5.00;;;;;;;15.55;100.00;100149.07;109720;1250;72676;-84
2023/06/17 02:22:11;;;;;;;6.20;4.80;;;;;;;15.56;100.00;100145.52;109659;1254;60340;-84
2023/06/17 02:24:39;;;;;;;6.30;4.80;;;;;;;15.57;100.00;100149.64;109827;1251;60038;-85
2023/06/17 02:27:07;;;;;;;8.30;5.80;;;;;;;15.58;100.00;100145.86;109836;1250;73159;-86
2023/06/17 02:29:34;;;;;;;8.70;5.40;;;;;;;15.60;100.00;100145.36;109995;1250;64102;-84
2023/06/17 02:32:02;;;;;;;7.90;5.20;;;;;;;15.61;100.00;100146.08;109676;1256;71380;-84
2023/06/17 02:34:29;;;;;;;10.10;5.70;;;;;;;15.63;100.00;100145.89;109727;1250;63800;-84
2023/06/17 02:36:59;;;;;;;8.70;5.10;;;;;;;15.66;100.00;100144.98;109749;1249;60100;-86
2023/06/17 02:39:27;;;;;;;7.50;5.10;;;;;;;15.69;100.00;100150.36;109675;1251;71485;-85
2023/06/17 02:41:54;;;;;;;8.00;5.00;;;;;;;15.72;100.00;100153.45;109877;1250;62394;-85
2023/06/17 02:44:22;;;;;;;9.60;4.70;;;;;;;15.74;100.00;100155.20;109707;1251;72862;-85
2023/06/17 02:46:50;;;;;;;13.00;6.60;;;;;;;15.77;100.00;100153.69;109673;1251;60368;-84
2023/06/17 02:49:18;;;;;;;9.90;5.50;;;;;;;15.81;100.00;100155.63;109699;1250;60249;-85
2023/06/17 02:51:47;;;;;;;9.20;5.40;;;;;;;15.85;100.00;100156.56;109717;1250;71689;-85
2023/06/17 02:54:15;;;;;;;8.40;5.60;;;;;;;15.87;100.00;100151.02;109763;1254;63765;-86
2023/06/17 02:56:43;;;;;;;14.20;6.10;;;;;;;15.91;100.00;100156.38;109702;1250;71429;-84
2023/06/17 02:59:13;;;;;;;9.00;6.70;;;;;;;15.93;100.00;100157.19;109673;1249;61708;-86
2023/06/17 03:01:42;;;;;;;9.70;5.80;;;;;;;15.97;100.00;100158.65;109757;1251;58868;-85
2023/06/17 03:04:11;;;;;;;8.50;5.90;;;;;;;15.99;100.00;100152.79;109778;1249;71913;-84
2023/06/17 03:06:41;;;;;;;11.00;6.00;;;;;;;16.03;100.00;100154.94;109656;1249;64182;-84
2023/06/17 03:09:09;;;;;;;13.90;5.80;;;;;;;16.07;100.00;100156.15;109683;1250;73574;-86
2023/06/17 03:11:37;;;;;;;7.60;5.10;;;;;;;16.12;100.00;100153.17;109702;1254;60383;-84
2023/06/17 03:14:05;;;;;;;7.70;5.50;;;;;;;16.19;100.00;100157.89;109715;1251;58465;-85
2023/06/17 03:16:34;;;;;;;8.00;5.20;;;;;;;16.25;100.00;100155.34;109884;1250;72063;-85
2023/06/17 03:19:02;;;;;;;9.70;5.50;;;;;;;16.32;100.00;100157.38;109853;1250;62719;-86
2023/06/17 03:21:32;;;;;;;8.00;6.30;;;;;;;16.37;100.00;100160.46;109694;1255;73280;-83
2023/06/17 03:24:01;;;;;;;10.10;5.90;;;;;;;16.43;100.00;100164.55;109654;1249;60506;-84
2023/06/17 03:26:29;;;;;;;12.00;6.30;;;;;;;16.48;100.00;100159.61;109721;1250;58820;-85
2023/06/17 03:28:57;;;;;;;9.70;6.00;;;;;;;16.53;100.00;100160.08;109723;1249;71458;-83
2023/06/17 03:31:25;;;;;;;12.00;6.30;;;;;;;16.57;100.00;100159.48;109934;1249;62399;-81
2023/06/17 03:33:53;;;;;;;10.40;6.00;;;;;;;16.61;100.00;100159.83;109878;1250;72735;-83
2023/06/17 03:36:25;;;;;;;12.90;6.80;;;;;;;16.64;100.00;100160.65;109663;1250;61100;-85
2023/06/17 03:38:53;;;;;;;10.10;5.80;;;;;;;16.68;100.00;100163.82;109680;1250;60805;-85
2023/06/17 03:41:21;;;;;;;11.70;5.70;;;;;;;16.72;100.00;100163.08;109853;1250;73027;-85
2023/06/17 03:43:50;;;;;;;13.80;5.70;;;;;;;16.77;100.00;100165.95;109642;1251;62263;-85
2023/06/17 03:46:18;;;;;;;9.40;5.90;;;;;;;16.82;100.00;100170.61;109616;1251;72305;-86
2023/06/17 03:48:46;;;;;;;14.70;5.90;;;;;;;16.88;100.00;100174.47;109667;1250;60448;-84
2023/06/17 03:51:17;;;;;;;8.40;6.20;;;;;;;16.93;100.00;100173.27;109689;1250;58792;-84
2023/06/17 03:53:45;;;;;;;9.50;6.20;;;;;;;17.01;100.00;100175.91;109655;1251;73480;-85
2023/06/17 03:56:13;;;;;;;8.20;5.40;;;;;;;17.09;100.00;100169.52;109699;1251;63741;-86
2023/06/17 03:58:42;;;;;;;10.10;6.30;;;;;;;17.16;100.00;100166.67;109720;1251;72839;-84
2023/06/17 04:01:12;;;;;;;8.20;6.50;;;;;;;17.25;100.00;100169.94;109784;1250;61704;-86
2023/06/17 04:03:41;;;;;;;8.60;5.40;;;;;;;17.33;100.00;100167.33;109708;1253;60261;-85
2023/06/17 04:06:10;;;;;;;7.70;5.70;;;;;;;17.45;100.00;100173.86;109694;1251;71753;-88
2023/06/17 04:08:37;;;;;;;9.20;5.20;;;;;;;17.55;100.00;100172.88;109791;1250;63727;-86
2023/06/17 04:11:05;;;;;;;6.30;4.80;;;;;;;17.68;100.00;100176.63;109833;1250;72350;-86
2023/06/17 04:13:34;;;;;;;8.10;6.70;;;;;;;17.86;100.00;100176.82;109759;1251;62137;-85
2023/06/17 04:16:02;;;;;;;6.70;5.40;;;;;;;18.16;100.00;100176.15;109994;1250;58766;-85
2023/06/17 04:18:30;;;;;;;7.40;4.60;;;;;;;18.59;100.00;100176.86;109711;1249;73119;-85
2023/06/17 04:20:59;;;;;;;9.20;4.60;;;;;;;19.14;100.00;100179.56;109907;1250;63533;-85
2023/06/17 04:23:29;;;;;;;9.70;4.90;;;;;;;19.81;100.00;100176.13;109805;1250;72430;-85
2023/06/17 04:25:57;;;;;;;11.80;4.80;;;;;;;20.48;100.00;100177.62;109678;1251;60461;-84
2023/06/17 04:28:25;;;;;;;6.50;4.70;;;;;;;21.13;100.00;100183.67;109895;1250;58961;-84
2023/06/17 04:30:54;;;;;;;6.10;5.30;;;;;;;21.74;100.00;100186.45;109823;1251;71791;-82
2023/06/17 04:33:24;;;;;;;8.40;4.80;;;;;;;22.31;100.00;100183.48;109954;1250;62557;-85
2023/06/17 04:39:04;;;;;;;5.10;4.40;;;;;;;23.50;99.00;100191.92;105215;1290;601276;-86
2023/06/17 04:41:33;;;;;;;6.60;4.30;;;;;;;23.97;95.62;100189.02;105475;1267;59277;-83
2023/06/17 04:44:01;;;;;;;5.30;4.00;;;;;;;24.41;92.61;100192.74;105282;1267;59792;-84
2023/06/17 04:46:28;;;;;;;13.30;5.60;;;;;;;24.78;90.13;100194.46;105046;1272;70107;-84
2023/06/17 04:48:57;;;;;;;5.50;5.00;;;;;;;25.12;87.91;100187.50;105154;1266;63096;-85
2023/06/17 04:51:24;;;;;;;6.80;5.10;;;;;;;25.40;83.34;100187.79;104804;1269;71902;-86
2023/06/17 04:53:52;;;;;;;6.90;4.80;;;;;;;25.66;82.50;100184.39;105114;1269;708610;-85
2023/06/17 04:56:19;;;;;;;16.80;5.40;;;;;;;25.89;81.43;100185.74;105459;1263;60263;-83
2023/06/17 04:58:47;;;;;;;5.80;5.20;;;;;;;26.17;79.28;100187.63;105894;1258;72352;-85
2023/06/17 05:01:16;;;;;;;10.20;5.00;;;;;;;26.45;76.87;100183.95;106852;1256;64899;-83
2023/06/17 05:05:32;;;;;;;8.70;4.40;;;;;;;26.90;72.67;100182.05;106420;1291;599303;-85
2023/06/17 05:08:00;;;;;;;8.10;4.30;;;;;;;27.17;69.44;100184.77;108752;1266;58676;-84
2023/06/17 05:10:28;;;;;;;4.70;4.10;;;;;;;27.46;68.05;100184.92;108863;1267;59009;-84
2023/06/17 05:12:56;;;;;;;6.00;4.30;;;;;;;27.73;65.61;100185.13;108294;1266;71040;-85
2023/06/17 05:15:43;;;;;;;10.20;4.30;;;;;;;27.99;63.06;100187.08;108852;1263;62435;31
2023/06/17 05:18:11;;;;;;;8.40;5.50;;;;;;;28.28;60.03;100186.88;107792;1270;579590;-86
2023/06/17 05:20:40;;;;;;;7.00;4.00;;;;;;;28.46;58.60;100184.23;108431;1270;58892;-85
2023/06/17 05:26:07;;;;;;;7.20;4.30;;;;;;;28.80;53.56;100186.17;107957;1277;73254;-85
2023/06/17 05:28:37;;;;;;;6.50;4.00;;;;;;;28.97;52.42;100183.88;107821;1273;62509;-84
2023/06/17 05:31:05;;;;;;;6.70;3.40;;;;;;;29.16;52.95;100191.23;106660;1272;71168;-86
2023/06/17 05:33:34;;;;;;;6.00;3.90;;;;;;;29.33;50.56;100190.07;108102;1273;61892;-86
2023/06/17 05:36:02;;;;;;;6.10;4.90;;;;;;;29.39;49.78;100186.38;108284;1274;59267;-86
2023/06/17 05:38:30;;;;;;;6.40;3.50;;;;;;;29.28;48.64;100184.90;108240;1278;71857;-87
2023/06/17 05:40:58;;;;;;;10.50;9.50;;;;;;;29.26;50.20;100186.17;108272;1271;62525;-87
2023/06/17 05:43:27;;;;;;;6.10;3.50;;;;;;;29.34;48.96;100184.24;108663;1263;71414;-86
2023/06/17 05:45:55;;;;;;;8.30;4.30;;;;;;;29.43;49.03;100177.80;108711;1263;59483;-84
2023/06/17 05:48:23;;;;;;;20.70;5.30;;;;;;;29.55;47.50;100176.58;105682;1263;59752;-88
2023/06/17 05:50:53;;;;;;;7.90;4.00;;;;;;;29.58;46.95;100171.13;105352;1269;72538;-89
2023/06/17 05:53:20;;;;;;;5.90;3.50;;;;;;;29.53;46.57;100174.52;105336;1264;62636;-86
2023/06/17 05:55:48;;;;;;;4.90;3.80;;;;;;;29.66;46.48;100182.48;105194;1265;71487;-89
2023/06/17 05:58:16;;;;;;;7.90;3.30;;;;;;;29.89;46.08;100179.19;105106;1264;59742;-89
2023/06/17 06:00:51;;;;;;;5.20;3.40;;;;;;;30.12;45.96;100174.64;105183;1263;59741;-89
2023/06/17 06:03:18;;;;;;;5.30;3.80;;;;;;;30.27;45.22;100175.67;105093;1264;73180;-87
2023/06/17 06:05:46;;;;;;;4.30;3.20;;;;;;;30.35;46.23;100174.30;105111;1267;63704;-87
2023/06/17 06:08:13;;;;;;;7.30;3.90;;;;;;;30.45;45.58;100178.00;105226;1266;72473;-87
2023/06/17 06:10:41;;;;;;;16.70;4.10;;;;;;;30.56;43.59;100173.73;105091;1264;60538;-88
2023/06/17 06:13:10;;;;;;;5.70;3.30;;;;;;;30.76;42.93;100178.30;104981;1270;59692;-88
2023/06/17 06:15:38;;;;;;;3.80;3.40;;;;;;;30.83;42.62;100174.13;104858;1271;72179;-86
2023/06/17 06:18:05;;;;;;;8.50;3.70;;;;;;;30.95;42.42;100174.48;105086;1270;62677;-86
2023/06/17 06:20:34;;;;;;;6.30;4.00;;;;;;;31.04;42.27;100175.48;105369;1264;72349;-89
2023/06/17 06:23:01;;;;;;;6.40;3.70;;;;;;;31.13;42.17;100171.79;106180;1267;60154;-88
2023/06/17 06:25:29;;;;;;;4.90;3.60;;;;;;;31.23;41.23;100168.89;106412;1263;59270;-85
2023/06/17 06:27:58;;;;;;;4.60;3.30;;;;;;;31.32;42.05;100166.63;108385;1263;73275;-83
2023/06/17 06:30:29;;;;;;;3.50;3.20;;;;;;;31.62;41.16;100166.66;107147;1264;62411;-87
2023/06/17 06:32:56;;;;;;;5.80;3.50;;;;;;;31.83;40.58;100155.92;105112;1263;71578;-87
2023/06/17 06:35:25;;;;;;;6.80;3.60;;;;;;;32.00;39.78;100155.48;105127;1270;60280;-86
2023/06/17 06:37:53;;;;;;;6.10;4.00;;;;;;;32.13;40.06;100154.89;105086;1268;59520;-88
2023/06/17 06:40:22;;;;;;;6.90;3.30;;;;;;;32.31;40.09;100152.23;105126;1267;72000;-87
2023/06/17 06:42:50;;;;;;;5.10;3.40;;;;;;;32.45;39.71;100149.19;105222;1269;62781;-88
2023/06/17 06:45:25;;;;;;;4.50;3.60;;;;;;;32.59;39.18;100149.33;105190;1264;72771;-90
2023/06/17 06:47:55;;;;;;;5.20;3.40;;;;;;;32.59;38.70;100153.17;105124;1264;60496;-85
2023/06/17 06:50:22;;;;;;;5.60;3.50;;;;;;;32.63;37.94;100151.39;105088;1268;61168;-87
2023/06/17 06:52:51;;;;;;;7.00;3.20;;;;;;;32.62;37.57;100149.44;105015;1264;72068;-89
2023/06/17 06:55:19;;;;;;;6.50;2.90;;;;;;;32.53;37.43;100144.66;105030;1270;64511;-87
2023/06/17 06:57:48;;;;;;;8.00;3.60;;;;;;;32.35;36.76;100149.87;105192;1264;72531;-84
2023/06/17 07:00:16;;;;;;;5.50;4.40;;;;;;;32.11;37.94;100148.91;105128;1264;60063;-86
2023/06/17 07:02:46;;;;;;;7.10;3.70;;;;;;;31.87;39.09;100149.21;105236;1264;59692;-88
2023/06/17 07:05:14;;;;;;;6.20;3.40;;;;;;;31.50;39.42;100153.41;105100;1263;73208;-88
2023/06/17 07:07:47;;;;;;;3.60;3.30;;;;;;;31.06;39.49;100155.58;105400;1264;62444;-85
2023/06/17 07:10:14;;;;;;;6.60;3.80;;;;;;;30.73;39.17;100154.02;105081;1264;71436;-88
2023/06/17 07:12:42;;;;;;;5.50;3.90;;;;;;;30.71;40.65;100153.52;105031;1270;59760;-88
2023/06/17 07:15:14;;;;;;;10.40;3.50;;;;;;;30.98;40.54;100147.08;105204;1269;59656;-89
2023/06/17 07:29:56;;;;;;;7.80;4.00;;;;;;;32.08;38.49;100138.73;105901;1290;615927;-86
2023/06/17 07:32:23;;;;;;;5.90;3.40;;;;;;;32.42;38.03;100134.84;108856;1263;56787;-86
2023/06/17 07:34:50;;;;;;;4.80;3.20;;;;;;;32.72;38.08;100133.81;108915;1264;59027;-85
2023/06/17 07:37:18;;;;;;;5.30;2.90;;;;;;;33.06;35.58;100131.83;108873;1263;71000;-85
2023/06/17 07:40:11;;;;;;;8.00;3.10;;;;;;;33.34;34.47;100131.68;108799;1264;62523;-86
2023/06/17 07:42:42;;;;;;;4.80;3.20;;;;;;;33.69;33.77;100128.86;108512;1261;543624;-85
2023/06/17 07:45:12;;;;;;;12.20;3.30;;;;;;;33.92;32.95;100132.11;108980;1262;60422;-86
2023/06/17 07:47:40;;;;;;;4.70;3.20;;;;;;;34.13;32.54;100133.67;109503;1255;58828;-85
2023/06/17 07:50:08;;;;;;;3.30;3.00;;;;;;;34.36;32.16;100134.73;109462;1255;71055;-86
2023/06/17 07:52:35;;;;;;;4.40;3.00;;;;;;;34.56;31.71;100140.72;109463;1256;62667;-85
2023/06/17 07:55:03;;;;;;;7.40;4.40;;;;;;;34.58;30.86;100138.89;109341;1255;71190;-86
2023/06/17 07:57:34;;;;;;;5.30;3.90;;;;;;;34.41;30.91;100140.14;109539;1256;59340;-86
2023/06/17 08:00:14;;;;;;;7.20;3.20;;;;;;;34.43;31.10;100140.54;109363;1255;59264;-85
2023/06/17 08:05:43;;;;;;;7.20;3.80;;;;;;;34.58;30.40;100141.24;106274;1292;599951;-91
2023/06/17 08:08:33;;;;;;;8.30;4.00;;;;;;;34.49;30.74;100139.66;108784;1267;59335;-87
2023/06/17 08:11:00;;;;;;;7.40;3.40;;;;;;;34.46;31.30;100136.31;108707;1267;61391;-85
2023/06/17 08:13:28;;;;;;;7.50;3.80;;;;;;;34.52;31.49;100137.16;108675;1267;71401;-86
2023/06/17 08:15:55;;;;;;;5.60;3.60;;;;;;;34.67;31.17;100134.11;107696;1267;62807;-85
2023/06/17 08:18:23;;;;;;;3.60;3.30;;;;;;;34.94;30.79;100138.67;105126;1269;696307;-87
2023/06/17 08:20:51;;;;;;;3.70;3.00;;;;;;;35.17;30.33;100135.85;105518;1264;60671;-88
2023/06/17 08:23:18;;;;;;;5.20;3.50;;;;;;;35.33;30.37;100136.45;105490;1257;61169;-87
2023/06/17 08:25:46;;;;;;;5.20;3.50;;;;;;;35.49;30.10;100133.15;105550;1257;72378;-88
2023/06/17 08:28:14;;;;;;;7.90;3.10;;;;;;;35.62;29.99;100137.62;105422;1257;62505;-89
2023/06/17 08:30:41;;;;;;;6.20;3.50;;;;;;;35.71;30.00;100132.46;105534;1259;71610;-87
2023/06/17 08:33:09;;;;;;;5.80;3.70;;;;;;;35.82;29.57;100131.21;105517;1257;59755;-88
2023/06/17 08:35:37;;;;;;;5.80;3.30;;;;;;;35.91;30.07;100130.02;105480;1257;59737;-90
2023/06/17 08:38:05;;;;;;;4.40;3.00;;;;;;;36.04;29.56;100121.86;105606;1260;72128;-89
2023/06/17 08:40:33;;;;;;;9.10;3.70;;;;;;;36.13;29.07;100116.59;106047;1252;65269;-90
2023/06/17 08:43:04;;;;;;;7.30;3.60;;;;;;;36.18;29.61;100117.97;105925;1257;71242;-84
2023/06/17 08:45:32;;;;;;;5.80;3.10;;;;;;;36.20;29.11;100121.46;105950;1254;59781;-88
2023/06/17 08:48:00;;;;;;;7.70;3.90;;;;;;;36.18;28.85;100119.45;105837;1251;60173;-90
2023/06/17 08:50:30;;;;;;;6.80;3.30;;;;;;;36.10;29.10;100119.16;105938;1257;64224;-87
2023/06/17 08:52:58;;;;;;;6.70;4.10;;;;;;;36.08;29.22;100117.08;106383;1251;63504;-87
2023/06/17 08:55:25;;;;;;;8.90;3.70;;;;;;;36.21;29.73;100115.13;108354;1251;62436;-85
2023/06/17 08:57:53;;;;;;;6.10;2.90;;;;;;;36.34;29.52;100112.38;107723;1254;59688;-82
2023/06/17 09:00:20;;;;;;;9.30;3.00;;;;;;;36.34;28.66;100115.39;108582;1251;59573;-84
2023/06/17 09:02:48;;;;;;;5.70;3.10;;;;;;;36.28;28.36;100112.98;109219;1251;62907;-87
2023/06/17 09:05:16;;;;;;;6.30;3.30;;;;;;;36.26;28.47;100109.00;108678;1256;62966;-86
2023/06/17 09:07:45;;;;;;;4.30;3.10;;;;;;;36.21;28.95;100112.13;106278;1257;64613;-88
2023/06/17 09:10:14;;;;;;;4.40;3.60;;;;;;;36.20;29.00;100115.18;105969;1254;59710;-85
2023/06/17 09:12:42;;;;;;;9.80;4.70;;;;;;;36.25;28.77;100110.31;106004;1251;60557;-87
2023/06/17 09:15:19;;;;;;;4.10;3.30;;;;;;;36.30;28.53;100111.29;106068;1257;64153;-86
2023/06/17 09:17:47;;;;;;;4.30;2.90;;;;;;;36.31;28.55;100108.17;106843;1255;62674;-86
2023/06/17 09:20:15;;;;;;;3.90;3.10;;;;;;;36.38;28.12;100112.38;107778;1254;72649;-83
2023/06/17 09:22:45;;;;;;;6.00;3.10;;;;;;;36.42;27.79;100106.95;107892;1254;59541;-83
2023/06/17 09:25:39;;;;;;;5.10;3.40;;;;;;;36.33;28.02;100101.63;106758;1253;59666;-88
2023/06/17 09:28:08;;;;;;;6.00;3.60;;;;;;;36.29;28.41;100097.30;106020;1252;64295;-86
2023/06/17 09:30:42;;;;;;;6.00;3.10;;;;;;;36.27;28.66;100099.00;105854;1260;63566;-87
2023/06/17 09:33:20;;;;;;;5.20;3.50;;;;;;;36.36;28.48;100095.48;105958;1257;63910;-86
2023/06/17 09:35:51;;;;;;;6.80;3.70;;;;;;;36.43;28.31;100095.20;105950;1254;59636;-89
2023/06/17 09:38:18;;;;;;;5.00;3.70;;;;;;;36.55;28.14;100097.90;105829;1256;60931;-88
2023/06/17 09:40:47;;;;;;;4.50;2.90;;;;;;;36.57;27.09;100096.10;105966;1255;64091;-87
2023/06/17 09:43:15;;;;;;;6.90;3.10;;;;;;;36.45;26.78;100092.36;105816;1254;59701;-88
2023/06/17 09:46:01;;;;;;;5.60;3.50;;;;;;;36.38;27.06;100092.60;105873;1254;75715;-89
2023/06/17 09:48:33;;;;;;;5.60;3.00;;;;;;;36.40;27.38;100096.19;106000;1256;59637;-88
2023/06/17 09:51:12;;;;;;;3.70;2.90;;;;;;;36.51;26.84;100096.05;105980;1251;59603;-90
2023/06/17 09:53:41;;;;;;;9.00;4.10;;;;;;;36.56;26.28;100086.05;105685;1259;62934;-88
2023/06/17 09:56:10;;;;;;;3.70;3.10;;;;;;;36.56;26.42;100090.57;105800;1254;59743;-89
2023/06/17 09:58:39;;;;;;;6.00;3.10;;;;;;;36.52;26.37;100093.09;105987;1256;63058;-87
2023/06/17 10:01:11;;;;;;;6.40;3.10;;;;;;;36.57;26.32;100090.03;105743;1254;60965;-87
2023/06/17 10:03:41;;;;;;;7.00;3.40;;;;;;;36.67;26.21;100084.49;106159;1254;59618;-86
2023/06/17 10:06:10;;;;;;;3.60;3.30;;;;;;;36.77;26.62;100085.16;106464;1256;64182;-87
2023/06/17 10:08:44;;;;;;;3.60;2.80;;;;;;;36.84;26.28;100087.16;107953;1254;59589;-86
2023/06/17 10:11:15;;;;;;;3.10;2.80;;;;;;;36.76;26.01;100082.83;108057;1254;62577;-86
2023/06/17 10:13:43;;;;;;;5.30;2.70;;;;;;;36.74;26.07;100079.55;106665;1256;59788;-87
2023/06/17 10:16:20;;;;;;;6.40;3.90;;;;;;;36.80;25.96;100078.05;106359;1251;59858;-87
2023/06/17 10:18:48;;;;;;;3.40;3.10;;;;;;;36.83;25.41;100075.96;106256;1251;66553;-86
2023/06/17 10:21:16;;;;;;;8.60;3.40;;;;;;;36.79;25.70;100074.13;106102;1253;59624;-86
2023/06/17 10:23:43;;;;;;;3.90;3.20;;;;;;;36.83;25.80;100076.66;106306;1257;64106;-89
2023/06/17 10:26:12;;;;;;;7.30;3.10;;;;;;;36.91;26.00;100070.51;106082;1254;59800;-86
2023/06/17 10:28:45;;;;;;;4.80;4.10;;;;;;;37.02;25.85;100072.37;106089;1257;59615;-87
2023/06/17 10:31:25;;;;;;;5.20;3.50;;;;;;;37.05;25.70;100074.53;105966;1255;63364;-86
2023/06/17 10:33:57;;;;;;;6.30;3.80;;;;;;;36.95;25.59;100077.48;106089;1256;59632;-88
2023/06/17 10:36:25;;;;;;;8.20;2.90;;;;;;;36.90;25.66;100072.05;106573;1251;63891;-86
2023/06/17 10:38:55;;;;;;;4.60;3.00;;;;;;;36.94;26.21;100071.04;106520;1257;59743;-87
2023/06/17 10:41:46;;;;;;;5.40;4.20;;;;;;;37.08;26.27;100063.77;106129;1251;59624;-86
2023/06/17 10:44:20;;;;;;;4.90;2.90;;;;;;;37.20;25.98;100067.20;105978;1257;63098;-89
2023/06/17 10:46:50;;;;;;;4.20;2.90;;;;;;;37.17;25.61;100072.80;105951;1256;59510;-86
2023/06/17 10:49:19;;;;;;;5.20;3.50;;;;;;;37.06;25.50;100069.08;106037;1256;62486;-87
2023/06/17 10:51:51;;;;;;;6.10;3.30;;;;;;;37.03;25.87;100065.80;106089;1256;59701;-87
2023/06/17 10:54:30;;;;;;;7.70;3.30;;;;;;;37.08;25.99;100059.62;106022;1251;60346;-89
2023/06/17 10:57:00;;;;;;;7.30;3.20;;;;;;;37.01;25.64;100060.67;106135;1251;64657;-88
2023/06/17 10:59:29;;;;;;;6.70;2.90;;;;;;;36.84;26.27;100063.48;106072;1257;59752;-87
2023/06/17 11:02:01;;;;;;;5.70;3.20;;;;;;;36.75;26.15;100062.16;106433;1256;64093;-84
2023/06/17 11:04:32;;;;;;;;;;;;;;;36.63;26.29;100067.40;106286;1253;59713;-87
2023/06/17 11:07:00;;;;;;;4.70;3.30;;;;;;;36.56;26.26;100059.33;106172;1256;59609;-88
2023/06/17 11:09:29;;;;;;;8.40;3.30;;;;;;;36.49;26.49;100055.02;106076;1251;64220;-89
2023/06/17 11:11:57;;;;;;;3.10;2.80;;;;;;;36.37;26.90;100052.88;106169;1253;63739;-88
2023/06/17 11:14:26;;;;;;;5.80;3.60;;;;;;;36.31;27.05;100052.02;106216;1254;72043;-88
2023/06/17 11:16:54;;;;;;;4.20;3.80;;;;;;;36.25;26.94;100049.20;106219;1255;59653;-87
2023/06/17 11:19:22;;;;;;;6.90;3.70;;;;;;;36.12;26.90;100042.77;106260;1251;62462;-86
2023/06/17 11:22:03;;;;;;;5.60;3.70;;;;;;;36.00;27.65;100041.34;106818;1251;71859;-86
2023/06/17 11:24:32;;;;;;;7.80;4.30;;;;;;;35.90;27.89;100046.82;106492;1251;59809;-86
2023/06/17 11:27:00;;;;;;;8.50;3.70;;;;;;;35.65;27.80;100044.69;106218;1251;64637;-87
2023/06/17 11:29:29;;;;;;;7.40;4.00;;;;;;;35.33;28.19;100045.09;106064;1254;59709;-84
2023/06/17 11:32:00;;;;;;;3.70;3.30;;;;;;;34.97;28.04;100038.61;106059;1251;60024;-90
2023/06/17 11:34:34;;;;;;;4.80;4.00;;;;;;;34.61;28.49;100042.84;106008;1251;72007;-87
2023/06/17 11:37:02;;;;;;;6.10;3.80;;;;;;;34.25;29.21;100036.15;106411;1251;63579;-86
2023/06/17 11:39:30;;;;;;;5.20;3.60;;;;;;;33.96;30.25;100037.30;107872;1253;72884;-90
2023/06/17 11:42:01;;;;;;;5.30;3.20;;;;;;;33.63;30.44;100038.71;106638;1256;60120;-87
2023/06/17 11:44:31;;;;;;;5.00;3.60;;;;;;;33.26;30.78;100035.26;106091;1257;59574;-87
2023/06/17 11:47:08;;;;;;;8.00;4.10;;;;;;;32.94;31.59;100038.58;106049;1251;73215;-88
2023/06/17 11:49:40;;;;;;;6.10;3.40;;;;;;;32.70;31.98;100039.06;106114;1257;62488;-87